Waddington, United Kingdom
Current Conditions -  °F | °C
As of 11:50 AM on Monday 26 Jan 2015 (Local Time) from EGXW Reporting Station
Broken Clouds Broken Clouds  
Wind Chill: 37°   Ceiling: 25000
Heat Index: 45°   Visibility: 6mi
Dew Point: 34°   Wind: 17mph
Humidity: 66%   Direction: 290°WNW
Pressure: 30.15"   Gusts: NA
Location:  53.17°N, 0.52°W
Report Text: EGXW 261150Z 29015KT 9999 FEW028 BKN250 07/01 Q1021 BLU TEMPO 29015G25KT BLU
Loading
Personal Weather Stations






























Interactive Weather Map New forecast layout! Learn more

10-Day Weather Forecast

Advertisements
Track Severe Weather on mobile